sensor_id;sensor_type;location;lat;lon;timestamp;P1;durP1;ratioP1;P2;durP2;ratioP2
15202;SDS011;7702;51.046;5.184;2022-09-29T00:01:23;10.00;;;8.70;;
15202;SDS011;7702;51.046;5.184;2022-09-29T00:03:48;9.97;;;8.93;;
15202;SDS011;7702;51.046;5.184;2022-09-29T00:06:15;9.33;;;8.10;;
15202;SDS011;7702;51.046;5.184;2022-09-29T00:08:42;8.83;;;7.43;;
15202;SDS011;7702;51.046;5.184;2022-09-29T00:11:09;8.83;;;7.93;;
15202;SDS011;7702;51.046;5.184;2022-09-29T00:13:36;9.37;;;8.40;;
15202;SDS011;7702;51.046;5.184;2022-09-29T00:16:02;8.63;;;7.73;;
15202;SDS011;7702;51.046;5.184;2022-09-29T00:18:29;8.93;;;8.03;;
15202;SDS011;7702;51.046;5.184;2022-09-29T00:20:59;8.50;;;7.70;;
15202;SDS011;7702;51.046;5.184;2022-09-29T00:23:27;9.43;;;8.57;;
15202;SDS011;7702;51.046;5.184;2022-09-29T00:28:40;8.80;;;8.00;;
15202;SDS011;7702;51.046;5.184;2022-09-29T00:31:09;8.97;;;8.27;;
15202;SDS011;7702;51.046;5.184;2022-09-29T00:33:35;10.10;;;9.23;;
15202;SDS011;7702;51.046;5.184;2022-09-29T00:36:05;11.87;;;9.80;;
15202;SDS011;7702;51.046;5.184;2022-09-29T00:38:34;10.90;;;9.73;;
15202;SDS011;7702;51.046;5.184;2022-09-29T00:41:00;12.67;;;10.50;;
15202;SDS011;7702;51.046;5.184;2022-09-29T00:46:19;10.03;;;9.00;;
15202;SDS011;7702;51.046;5.184;2022-09-29T00:48:56;9.53;;;8.63;;
15202;SDS011;7702;51.046;5.184;2022-09-29T00:51:25;11.23;;;8.93;;
15202;SDS011;7702;51.046;5.184;2022-09-29T00:53:53;9.33;;;8.43;;
15202;SDS011;7702;51.046;5.184;2022-09-29T00:56:20;9.40;;;8.53;;
15202;SDS011;7702;51.046;5.184;2022-09-29T00:58:49;10.23;;;8.73;;
15202;SDS011;7702;51.046;5.184;2022-09-29T01:01:25;8.70;;;7.90;;
15202;SDS011;7702;51.046;5.184;2022-09-29T01:03:55;8.73;;;7.87;;
15202;SDS011;7702;51.046;5.184;2022-09-29T01:06:30;8.93;;;8.07;;
15202;SDS011;7702;51.046;5.184;2022-09-29T01:09:03;8.40;;;7.60;;
15202;SDS011;7702;51.046;5.184;2022-09-29T01:11:32;8.57;;;7.77;;
15202;SDS011;7702;51.046;5.184;2022-09-29T01:13:59;8.90;;;8.00;;
15202;SDS011;7702;51.046;5.184;2022-09-29T01:16:30;8.57;;;7.80;;
15202;SDS011;7702;51.046;5.184;2022-09-29T01:18:58;9.30;;;8.40;;
15202;SDS011;7702;51.046;5.184;2022-09-29T01:26:57;8.70;;;7.80;;
15202;SDS011;7702;51.046;5.184;2022-09-29T01:37:50;9.30;;;8.20;;
15202;SDS011;7702;51.046;5.184;2022-09-29T01:43:17;9.00;;;7.30;;
15202;SDS011;7702;51.046;5.184;2022-09-29T01:45:51;8.23;;;7.40;;
15202;SDS011;7702;51.046;5.184;2022-09-29T01:48:24;8.60;;;7.80;;
15202;SDS011;7702;51.046;5.184;2022-09-29T01:50:54;8.17;;;7.27;;
15202;SDS011;7702;51.046;5.184;2022-09-29T01:53:27;7.90;;;7.03;;
15202;SDS011;7702;51.046;5.184;2022-09-29T01:55:59;8.33;;;7.53;;
15202;SDS011;7702;51.046;5.184;2022-09-29T01:58:32;8.97;;;7.77;;
15202;SDS011;7702;51.046;5.184;2022-09-29T02:01:11;9.80;;;7.87;;
15202;SDS011;7702;51.046;5.184;2022-09-29T02:06:43;9.90;;;8.80;;
15202;SDS011;7702;51.046;5.184;2022-09-29T02:09:18;10.97;;;9.83;;
15202;SDS011;7702;51.046;5.184;2022-09-29T02:11:52;12.90;;;11.50;;
15202;SDS011;7702;51.046;5.184;2022-09-29T02:14:20;11.47;;;9.87;;
15202;SDS011;7702;51.046;5.184;2022-09-29T02:16:58;12.10;;;10.90;;
15202;SDS011;7702;51.046;5.184;2022-09-29T02:19:33;13.17;;;10.23;;
15202;SDS011;7702;51.046;5.184;2022-09-29T02:22:01;11.47;;;10.27;;
15202;SDS011;7702;51.046;5.184;2022-09-29T02:24:26;12.97;;;11.60;;
15202;SDS011;7702;51.046;5.184;2022-09-29T02:26:52;16.27;;;11.73;;
15202;SDS011;7702;51.046;5.184;2022-09-29T02:29:18;11.93;;;10.73;;
15202;SDS011;7702;51.046;5.184;2022-09-29T02:31:44;12.17;;;10.60;;
15202;SDS011;7702;51.046;5.184;2022-09-29T02:34:12;13.13;;;11.07;;
15202;SDS011;7702;51.046;5.184;2022-09-29T02:48:35;13.40;;;9.43;;
15202;SDS011;7702;51.046;5.184;2022-09-29T02:51:48;10.77;;;9.30;;
15202;SDS011;7702;51.046;5.184;2022-09-29T02:59:50;10.60;;;9.57;;
15202;SDS011;7702;51.046;5.184;2022-09-29T03:02:39;10.47;;;9.37;;
15202;SDS011;7702;51.046;5.184;2022-09-29T03:05:09;10.80;;;9.30;;
15202;SDS011;7702;51.046;5.184;2022-09-29T03:07:38;11.83;;;9.57;;
15202;SDS011;7702;51.046;5.184;2022-09-29T03:10:05;12.03;;;9.43;;
15202;SDS011;7702;51.046;5.184;2022-09-29T03:12:32;12.87;;;10.10;;
15202;SDS011;7702;51.046;5.184;2022-09-29T03:14:58;10.77;;;9.67;;
15202;SDS011;7702;51.046;5.184;2022-09-29T03:17:24;12.63;;;9.37;;
15202;SDS011;7702;51.046;5.184;2022-09-29T03:19:50;10.53;;;9.20;;
15202;SDS011;7702;51.046;5.184;2022-09-29T03:22:16;12.70;;;10.80;;
15202;SDS011;7702;51.046;5.184;2022-09-29T03:24:42;12.27;;;10.57;;
15202;SDS011;7702;51.046;5.184;2022-09-29T03:27:08;11.80;;;10.60;;
15202;SDS011;7702;51.046;5.184;2022-09-29T03:29:34;14.80;;;11.73;;
15202;SDS011;7702;51.046;5.184;2022-09-29T03:32:02;14.37;;;11.90;;
15202;SDS011;7702;51.046;5.184;2022-09-29T03:34:28;13.57;;;11.20;;
15202;SDS011;7702;51.046;5.184;2022-09-29T03:36:54;16.40;;;11.83;;
15202;SDS011;7702;51.046;5.184;2022-09-29T03:39:20;14.67;;;12.07;;
15202;SDS011;7702;51.046;5.184;2022-09-29T03:41:46;15.50;;;13.10;;
15202;SDS011;7702;51.046;5.184;2022-09-29T03:44:12;13.53;;;11.47;;
15202;SDS011;7702;51.046;5.184;2022-09-29T03:46:38;14.67;;;12.20;;
15202;SDS011;7702;51.046;5.184;2022-09-29T03:49:03;13.73;;;11.83;;
15202;SDS011;7702;51.046;5.184;2022-09-29T03:51:29;15.97;;;11.57;;
15202;SDS011;7702;51.046;5.184;2022-09-29T03:53:55;14.37;;;11.60;;
15202;SDS011;7702;51.046;5.184;2022-09-29T03:56:21;16.87;;;12.33;;
15202;SDS011;7702;51.046;5.184;2022-09-29T03:58:47;14.30;;;11.83;;
15202;SDS011;7702;51.046;5.184;2022-09-29T04:01:13;13.97;;;11.17;;
15202;SDS011;7702;51.046;5.184;2022-09-29T04:03:39;11.63;;;10.33;;
15202;SDS011;7702;51.046;5.184;2022-09-29T04:06:04;14.90;;;10.43;;
15202;SDS011;7702;51.046;5.184;2022-09-29T04:08:30;12.53;;;10.60;;
15202;SDS011;7702;51.046;5.184;2022-09-29T04:10:56;14.33;;;11.13;;
15202;SDS011;7702;51.046;5.184;2022-09-29T04:13:21;13.03;;;11.00;;
15202;SDS011;7702;51.046;5.184;2022-09-29T04:15:47;16.50;;;10.97;;
15202;SDS011;7702;51.046;5.184;2022-09-29T04:18:13;15.33;;;12.07;;
15202;SDS011;7702;51.046;5.184;2022-09-29T04:20:39;15.27;;;11.40;;
15202;SDS011;7702;51.046;5.184;2022-09-29T04:23:05;14.47;;;11.53;;
15202;SDS011;7702;51.046;5.184;2022-09-29T04:25:31;12.77;;;10.93;;
15202;SDS011;7702;51.046;5.184;2022-09-29T04:27:58;17.13;;;11.80;;
15202;SDS011;7702;51.046;5.184;2022-09-29T04:30:24;12.43;;;10.90;;
15202;SDS011;7702;51.046;5.184;2022-09-29T04:32:49;15.50;;;11.33;;
15202;SDS011;7702;51.046;5.184;2022-09-29T04:35:15;12.83;;;11.53;;
15202;SDS011;7702;51.046;5.184;2022-09-29T04:37:41;16.70;;;11.83;;
15202;SDS011;7702;51.046;5.184;2022-09-29T04:40:07;16.57;;;11.50;;
15202;SDS011;7702;51.046;5.184;2022-09-29T04:42:33;15.23;;;11.67;;
15202;SDS011;7702;51.046;5.184;2022-09-29T04:44:59;15.53;;;11.83;;
15202;SDS011;7702;51.046;5.184;2022-09-29T04:47:25;16.67;;;12.23;;
15202;SDS011;7702;51.046;5.184;2022-09-29T04:49:51;17.27;;;13.13;;
15202;SDS011;7702;51.046;5.184;2022-09-29T04:52:16;16.70;;;12.27;;
15202;SDS011;7702;51.046;5.184;2022-09-29T04:54:42;15.43;;;11.93;;
15202;SDS011;7702;51.046;5.184;2022-09-29T04:57:08;16.90;;;12.90;;
15202;SDS011;7702;51.046;5.184;2022-09-29T04:59:34;17.23;;;12.83;;
15202;SDS011;7702;51.046;5.184;2022-09-29T05:02:00;13.27;;;11.87;;
15202;SDS011;7702;51.046;5.184;2022-09-29T05:04:26;14.13;;;11.87;;
15202;SDS011;7702;51.046;5.184;2022-09-29T05:06:52;15.73;;;11.97;;
15202;SDS011;7702;51.046;5.184;2022-09-29T05:09:17;17.27;;;12.37;;
15202;SDS011;7702;51.046;5.184;2022-09-29T05:11:43;17.23;;;13.07;;
15202;SDS011;7702;51.046;5.184;2022-09-29T05:14:09;18.33;;;12.73;;
15202;SDS011;7702;51.046;5.184;2022-09-29T05:16:35;15.00;;;12.33;;
15202;SDS011;7702;51.046;5.184;2022-09-29T05:19:02;16.13;;;12.90;;
15202;SDS011;7702;51.046;5.184;2022-09-29T05:21:27;18.80;;;13.80;;
15202;SDS011;7702;51.046;5.184;2022-09-29T05:23:53;17.23;;;13.37;;
15202;SDS011;7702;51.046;5.184;2022-09-29T05:26:19;15.63;;;12.63;;
15202;SDS011;7702;51.046;5.184;2022-09-29T05:28:46;20.27;;;13.13;;
15202;SDS011;7702;51.046;5.184;2022-09-29T05:31:12;16.27;;;13.13;;
15202;SDS011;7702;51.046;5.184;2022-09-29T05:33:39;21.00;;;13.13;;
15202;SDS011;7702;51.046;5.184;2022-09-29T05:36:06;17.30;;;13.60;;
15202;SDS011;7702;51.046;5.184;2022-09-29T05:38:33;19.13;;;13.40;;
15202;SDS011;7702;51.046;5.184;2022-09-29T05:41:03;18.80;;;14.00;;
15202;SDS011;7702;51.046;5.184;2022-09-29T05:43:30;20.53;;;14.87;;
15202;SDS011;7702;51.046;5.184;2022-09-29T05:45:59;19.77;;;13.27;;
15202;SDS011;7702;51.046;5.184;2022-09-29T05:48:28;18.93;;;14.90;;
15202;SDS011;7702;51.046;5.184;2022-09-29T05:50:55;17.07;;;13.50;;
15202;SDS011;7702;51.046;5.184;2022-09-29T05:53:21;17.93;;;14.03;;
15202;SDS011;7702;51.046;5.184;2022-09-29T05:55:47;17.80;;;14.20;;
15202;SDS011;7702;51.046;5.184;2022-09-29T05:58:13;20.07;;;14.23;;
15202;SDS011;7702;51.046;5.184;2022-09-29T06:00:40;22.07;;;13.60;;
15202;SDS011;7702;51.046;5.184;2022-09-29T06:03:05;19.57;;;13.27;;
15202;SDS011;7702;51.046;5.184;2022-09-29T06:05:31;18.73;;;13.27;;
15202;SDS011;7702;51.046;5.184;2022-09-29T06:07:57;20.97;;;14.93;;
15202;SDS011;7702;51.046;5.184;2022-09-29T06:10:22;25.13;;;15.43;;
15202;SDS011;7702;51.046;5.184;2022-09-29T06:12:48;21.63;;;14.93;;
15202;SDS011;7702;51.046;5.184;2022-09-29T06:15:14;20.63;;;14.83;;
15202;SDS011;7702;51.046;5.184;2022-09-29T06:17:39;24.10;;;15.87;;
15202;SDS011;7702;51.046;5.184;2022-09-29T06:20:05;21.23;;;15.40;;
15202;SDS011;7702;51.046;5.184;2022-09-29T06:22:32;21.90;;;15.80;;
15202;SDS011;7702;51.046;5.184;2022-09-29T06:24:58;21.30;;;14.70;;
15202;SDS011;7702;51.046;5.184;2022-09-29T06:27:24;22.30;;;16.23;;
15202;SDS011;7702;51.046;5.184;2022-09-29T06:29:50;20.63;;;14.80;;
15202;SDS011;7702;51.046;5.184;2022-09-29T06:32:15;21.37;;;15.47;;
15202;SDS011;7702;51.046;5.184;2022-09-29T06:34:41;19.30;;;14.00;;
15202;SDS011;7702;51.046;5.184;2022-09-29T06:37:25;18.53;;;14.60;;
15202;SDS011;7702;51.046;5.184;2022-09-29T06:40:04;20.37;;;14.17;;
15202;SDS011;7702;51.046;5.184;2022-09-29T06:42:32;19.27;;;14.07;;
15202;SDS011;7702;51.046;5.184;2022-09-29T06:44:58;18.80;;;14.53;;
15202;SDS011;7702;51.046;5.184;2022-09-29T06:47:24;18.60;;;14.07;;
15202;SDS011;7702;51.046;5.184;2022-09-29T06:49:50;18.30;;;13.63;;
15202;SDS011;7702;51.046;5.184;2022-09-29T06:52:16;18.97;;;14.70;;
15202;SDS011;7702;51.046;5.184;2022-09-29T06:54:42;20.83;;;13.83;;
15202;SDS011;7702;51.046;5.184;2022-09-29T06:57:08;14.73;;;13.07;;
15202;SDS011;7702;51.046;5.184;2022-09-29T06:59:34;13.67;;;11.30;;
15202;SDS011;7702;51.046;5.184;2022-09-29T07:02:00;12.93;;;10.83;;
15202;SDS011;7702;51.046;5.184;2022-09-29T07:04:26;12.47;;;11.07;;
15202;SDS011;7702;51.046;5.184;2022-09-29T07:06:52;12.87;;;10.67;;
15202;SDS011;7702;51.046;5.184;2022-09-29T07:09:18;12.70;;;10.37;;
15202;SDS011;7702;51.046;5.184;2022-09-29T07:11:45;12.73;;;10.23;;
15202;SDS011;7702;51.046;5.184;2022-09-29T07:14:13;12.13;;;9.73;;
15202;SDS011;7702;51.046;5.184;2022-09-29T07:16:39;10.33;;;9.30;;
15202;SDS011;7702;51.046;5.184;2022-09-29T07:19:05;10.17;;;8.83;;
15202;SDS011;7702;51.046;5.184;2022-09-29T07:21:31;10.77;;;8.33;;
15202;SDS011;7702;51.046;5.184;2022-09-29T07:23:56;9.40;;;8.30;;
15202;SDS011;7702;51.046;5.184;2022-09-29T07:26:22;11.10;;;9.37;;
15202;SDS011;7702;51.046;5.184;2022-09-29T07:28:48;10.33;;;8.70;;
15202;SDS011;7702;51.046;5.184;2022-09-29T07:31:14;9.47;;;8.57;;
15202;SDS011;7702;51.046;5.184;2022-09-29T07:33:42;10.50;;;8.40;;
15202;SDS011;7702;51.046;5.184;2022-09-29T07:36:09;11.77;;;7.83;;
15202;SDS011;7702;51.046;5.184;2022-09-29T07:38:35;9.10;;;8.13;;
15202;SDS011;7702;51.046;5.184;2022-09-29T07:41:08;9.03;;;7.43;;
15202;SDS011;7702;51.046;5.184;2022-09-29T07:43:35;8.53;;;7.40;;
15202;SDS011;7702;51.046;5.184;2022-09-29T07:46:03;11.23;;;7.27;;
15202;SDS011;7702;51.046;5.184;2022-09-29T07:48:29;9.20;;;7.57;;
15202;SDS011;7702;51.046;5.184;2022-09-29T07:51:03;9.27;;;6.53;;
15202;SDS011;7702;51.046;5.184;2022-09-29T07:53:34;10.10;;;6.33;;
15202;SDS011;7702;51.046;5.184;2022-09-29T07:56:04;6.97;;;6.27;;
15202;SDS011;7702;51.046;5.184;2022-09-29T07:58:39;8.87;;;5.57;;
15202;SDS011;7702;51.046;5.184;2022-09-29T08:01:07;6.17;;;5.50;;
15202;SDS011;7702;51.046;5.184;2022-09-29T08:03:37;6.27;;;5.67;;
15202;SDS011;7702;51.046;5.184;2022-09-29T08:06:03;8.77;;;5.77;;
15202;SDS011;7702;51.046;5.184;2022-09-29T08:08:29;6.10;;;5.53;;
15202;SDS011;7702;51.046;5.184;2022-09-29T08:11:04;7.20;;;6.03;;
15202;SDS011;7702;51.046;5.184;2022-09-29T08:13:35;6.27;;;5.47;;
15202;SDS011;7702;51.046;5.184;2022-09-29T08:16:05;6.83;;;5.93;;
15202;SDS011;7702;51.046;5.184;2022-09-29T08:18:32;7.07;;;6.20;;
15202;SDS011;7702;51.046;5.184;2022-09-29T08:20:59;9.33;;;6.70;;
15202;SDS011;7702;51.046;5.184;2022-09-29T08:23:26;7.37;;;6.17;;
15202;SDS011;7702;51.046;5.184;2022-09-29T08:26:09;7.00;;;6.30;;
15202;SDS011;7702;51.046;5.184;2022-09-29T08:28:38;8.10;;;5.90;;
15202;SDS011;7702;51.046;5.184;2022-09-29T08:31:25;7.40;;;6.37;;
15202;SDS011;7702;51.046;5.184;2022-09-29T08:33:50;6.47;;;5.73;;
15202;SDS011;7702;51.046;5.184;2022-09-29T08:36:17;9.40;;;6.17;;
15202;SDS011;7702;51.046;5.184;2022-09-29T08:38:45;5.83;;;5.27;;
15202;SDS011;7702;51.046;5.184;2022-09-29T08:44:08;6.10;;;5.60;;
15202;SDS011;7702;51.046;5.184;2022-09-29T08:46:51;7.97;;;6.10;;
15202;SDS011;7702;51.046;5.184;2022-09-29T08:49:27;7.23;;;5.63;;
15202;SDS011;7702;51.046;5.184;2022-09-29T08:52:09;8.33;;;6.33;;
15202;SDS011;7702;51.046;5.184;2022-09-29T08:54:40;6.77;;;5.80;;
15202;SDS011;7702;51.046;5.184;2022-09-29T08:57:11;9.10;;;5.83;;
15202;SDS011;7702;51.046;5.184;2022-09-29T08:59:43;8.60;;;5.97;;
15202;SDS011;7702;51.046;5.184;2022-09-29T09:07:23;8.07;;;6.10;;
15202;SDS011;7702;51.046;5.184;2022-09-29T09:10:20;5.80;;;5.20;;
15202;SDS011;7702;51.046;5.184;2022-09-29T09:21:00;6.30;;;4.87;;
15202;SDS011;7702;51.046;5.184;2022-09-29T09:24:13;5.90;;;5.30;;
15202;SDS011;7702;51.046;5.184;2022-09-29T09:26:35;7.60;;;5.40;;
15202;SDS011;7702;51.046;5.184;2022-09-29T09:29:09;6.93;;;5.10;;
15202;SDS011;7702;51.046;5.184;2022-09-29T09:31:39;6.40;;;5.37;;
15202;SDS011;7702;51.046;5.184;2022-09-29T09:34:25;5.53;;;4.70;;
15202;SDS011;7702;51.046;5.184;2022-09-29T09:37:07;6.80;;;5.03;;
15202;SDS011;7702;51.046;5.184;2022-09-29T09:40:02;4.83;;;4.23;;
15202;SDS011;7702;51.046;5.184;2022-09-29T09:42:44;5.87;;;4.40;;
15202;SDS011;7702;51.046;5.184;2022-09-29T09:48:43;6.13;;;4.47;;
15202;SDS011;7702;51.046;5.184;2022-09-29T09:54:19;5.23;;;4.37;;
15202;SDS011;7702;51.046;5.184;2022-09-29T10:00:08;6.20;;;4.63;;
15202;SDS011;7702;51.046;5.184;2022-09-29T10:02:46;7.17;;;5.10;;
15202;SDS011;7702;51.046;5.184;2022-09-29T10:05:18;6.30;;;4.87;;
15202;SDS011;7702;51.046;5.184;2022-09-29T10:07:45;6.73;;;4.17;;
15202;SDS011;7702;51.046;5.184;2022-09-29T10:12:41;6.23;;;4.10;;
15202;SDS011;7702;51.046;5.184;2022-09-29T10:18:00;6.80;;;4.80;;
15202;SDS011;7702;51.046;5.184;2022-09-29T10:20:49;4.23;;;3.83;;
15202;SDS011;7702;51.046;5.184;2022-09-29T10:25:57;4.17;;;3.60;;
15202;SDS011;7702;51.046;5.184;2022-09-29T10:28:28;5.40;;;4.07;;
15202;SDS011;7702;51.046;5.184;2022-09-29T10:31:48;3.50;;;3.20;;
15202;SDS011;7702;51.046;5.184;2022-09-29T10:33:57;3.90;;;3.50;;
15202;SDS011;7702;51.046;5.184;2022-09-29T10:36:47;6.10;;;3.60;;
15202;SDS011;7702;51.046;5.184;2022-09-29T10:42:38;4.30;;;3.43;;
15202;SDS011;7702;51.046;5.184;2022-09-29T10:47:40;4.60;;;4.17;;
15202;SDS011;7702;51.046;5.184;2022-09-29T10:50:19;5.50;;;3.70;;
15202;SDS011;7702;51.046;5.184;2022-09-29T10:55:26;4.40;;;2.77;;
15202;SDS011;7702;51.046;5.184;2022-09-29T10:57:55;3.60;;;3.30;;
15202;SDS011;7702;51.046;5.184;2022-09-29T11:03:16;4.23;;;3.83;;
15202;SDS011;7702;51.046;5.184;2022-09-29T11:06:10;4.80;;;3.70;;
15202;SDS011;7702;51.046;5.184;2022-09-29T11:11:34;5.70;;;4.17;;
15202;SDS011;7702;51.046;5.184;2022-09-29T11:14:02;4.27;;;3.80;;
15202;SDS011;7702;51.046;5.184;2022-09-29T11:16:32;5.30;;;4.03;;
15202;SDS011;7702;51.046;5.184;2022-09-29T11:19:04;4.00;;;3.67;;
15202;SDS011;7702;51.046;5.184;2022-09-29T11:38:19;4.27;;;3.00;;
15202;SDS011;7702;51.046;5.184;2022-09-29T11:41:07;3.77;;;2.47;;
15202;SDS011;7702;51.046;5.184;2022-09-29T11:54:29;3.40;;;2.80;;
15202;SDS011;7702;51.046;5.184;2022-09-29T11:59:54;3.30;;;2.10;;
15202;SDS011;7702;51.046;5.184;2022-09-29T12:10:45;4.57;;;2.70;;
15202;SDS011;7702;51.046;5.184;2022-09-29T12:13:55;3.53;;;2.37;;
15202;SDS011;7702;51.046;5.184;2022-09-29T12:16:56;4.00;;;2.13;;
15202;SDS011;7702;51.046;5.184;2022-09-29T12:19:26;3.23;;;2.60;;
15202;SDS011;7702;51.046;5.184;2022-09-29T12:21:57;3.57;;;2.13;;
15202;SDS011;7702;51.046;5.184;2022-09-29T12:24:33;2.50;;;2.23;;
15202;SDS011;7702;51.046;5.184;2022-09-29T12:27:04;3.13;;;2.10;;
15202;SDS011;7702;51.046;5.184;2022-09-29T12:29:40;2.73;;;2.53;;
15202;SDS011;7702;51.046;5.184;2022-09-29T12:35:41;2.80;;;2.27;;
15202;SDS011;7702;51.046;5.184;2022-09-29T12:38:10;1.90;;;1.80;;
15202;SDS011;7702;51.046;5.184;2022-09-29T12:43:59;2.60;;;2.10;;
15202;SDS011;7702;51.046;5.184;2022-09-29T12:49:10;3.23;;;1.93;;
15202;SDS011;7702;51.046;5.184;2022-09-29T12:51:51;2.07;;;1.50;;
15202;SDS011;7702;51.046;5.184;2022-09-29T12:59:34;2.40;;;1.80;;
15202;SDS011;7702;51.046;5.184;2022-09-29T13:02:15;2.67;;;1.87;;
15202;SDS011;7702;51.046;5.184;2022-09-29T13:31:14;2.87;;;2.03;;
15202;SDS011;7702;51.046;5.184;2022-09-29T13:33:46;5.73;;;2.07;;
15202;SDS011;7702;51.046;5.184;2022-09-29T13:36:25;3.67;;;2.10;;
15202;SDS011;7702;51.046;5.184;2022-09-29T13:38:54;3.60;;;1.93;;
15202;SDS011;7702;51.046;5.184;2022-09-29T13:51:41;1.93;;;1.60;;
15202;SDS011;7702;51.046;5.184;2022-09-29T13:56:58;2.80;;;1.97;;
15202;SDS011;7702;51.046;5.184;2022-09-29T13:59:25;2.53;;;1.87;;
15202;SDS011;7702;51.046;5.184;2022-09-29T14:01:53;2.47;;;2.00;;
15202;SDS011;7702;51.046;5.184;2022-09-29T14:07:12;2.13;;;1.70;;
15202;SDS011;7702;51.046;5.184;2022-09-29T14:10:02;3.33;;;1.80;;
15202;SDS011;7702;51.046;5.184;2022-09-29T14:12:41;2.97;;;1.90;;
15202;SDS011;7702;51.046;5.184;2022-09-29T14:15:09;3.10;;;1.70;;
15202;SDS011;7702;51.046;5.184;2022-09-29T14:17:41;3.63;;;2.20;;
15202;SDS011;7702;51.046;5.184;2022-09-29T14:40:53;2.93;;;1.70;;
15202;SDS011;7702;51.046;5.184;2022-09-29T14:43:24;3.17;;;1.70;;
15202;SDS011;7702;51.046;5.184;2022-09-29T14:49:24;2.57;;;1.70;;
15202;SDS011;7702;51.046;5.184;2022-09-29T14:55:12;3.60;;;1.80;;
15202;SDS011;7702;51.046;5.184;2022-09-29T15:01:01;2.53;;;1.70;;
15202;SDS011;7702;51.046;5.184;2022-09-29T15:08:53;1.60;;;1.50;;
15202;SDS011;7702;51.046;5.184;2022-09-29T15:13:53;2.13;;;1.40;;
15202;SDS011;7702;51.046;5.184;2022-09-29T15:19:15;2.23;;;1.47;;
15202;SDS011;7702;51.046;5.184;2022-09-29T15:27:20;2.33;;;1.40;;
15202;SDS011;7702;51.046;5.184;2022-09-29T15:29:47;1.90;;;1.70;;
15202;SDS011;7702;51.046;5.184;2022-09-29T15:32:32;1.90;;;1.50;;
15202;SDS011;7702;51.046;5.184;2022-09-29T15:35:02;2.17;;;1.73;;
15202;SDS011;7702;51.046;5.184;2022-09-29T15:37:42;1.60;;;1.50;;
15202;SDS011;7702;51.046;5.184;2022-09-29T15:40:19;2.33;;;1.53;;
15202;SDS011;7702;51.046;5.184;2022-09-29T15:42:47;4.07;;;1.80;;
15202;SDS011;7702;51.046;5.184;2022-09-29T15:45:17;2.50;;;1.63;;
15202;SDS011;7702;51.046;5.184;2022-09-29T15:47:46;1.97;;;1.70;;
15202;SDS011;7702;51.046;5.184;2022-09-29T15:50:22;2.43;;;1.60;;
15202;SDS011;7702;51.046;5.184;2022-09-29T15:52:49;2.90;;;1.90;;
15202;SDS011;7702;51.046;5.184;2022-09-29T15:55:20;3.47;;;1.83;;
15202;SDS011;7702;51.046;5.184;2022-09-29T15:57:48;2.10;;;1.90;;
15202;SDS011;7702;51.046;5.184;2022-09-29T16:05:33;2.20;;;1.80;;
15202;SDS011;7702;51.046;5.184;2022-09-29T16:08:15;3.77;;;2.10;;
15202;SDS011;7702;51.046;5.184;2022-09-29T16:10:55;1.63;;;1.53;;
15202;SDS011;7702;51.046;5.184;2022-09-29T16:13:24;3.23;;;2.10;;
15202;SDS011;7702;51.046;5.184;2022-09-29T16:15:56;3.40;;;2.33;;
15202;SDS011;7702;51.046;5.184;2022-09-29T16:18:25;3.40;;;2.03;;
15202;SDS011;7702;51.046;5.184;2022-09-29T16:20:54;2.40;;;2.20;;
15202;SDS011;7702;51.046;5.184;2022-09-29T16:23:24;4.27;;;2.20;;
15202;SDS011;7702;51.046;5.184;2022-09-29T16:28:32;4.97;;;2.67;;
15202;SDS011;7702;51.046;5.184;2022-09-29T16:31:00;3.70;;;2.80;;
15202;SDS011;7702;51.046;5.184;2022-09-29T16:33:28;2.80;;;2.37;;
15202;SDS011;7702;51.046;5.184;2022-09-29T16:35:59;3.73;;;2.53;;
15202;SDS011;7702;51.046;5.184;2022-09-29T16:38:34;3.90;;;2.40;;
15202;SDS011;7702;51.046;5.184;2022-09-29T16:43:43;4.73;;;3.00;;
15202;SDS011;7702;51.046;5.184;2022-09-29T16:46:19;4.00;;;3.30;;
15202;SDS011;7702;51.046;5.184;2022-09-29T16:48:47;5.00;;;3.37;;
15202;SDS011;7702;51.046;5.184;2022-09-29T16:51:15;4.03;;;3.20;;
15202;SDS011;7702;51.046;5.184;2022-09-29T16:53:46;4.10;;;2.77;;
15202;SDS011;7702;51.046;5.184;2022-09-29T16:59:00;3.27;;;2.80;;
15202;SDS011;7702;51.046;5.184;2022-09-29T17:01:37;4.20;;;3.00;;
15202;SDS011;7702;51.046;5.184;2022-09-29T17:04:07;4.47;;;2.60;;
15202;SDS011;7702;51.046;5.184;2022-09-29T17:06:33;4.33;;;3.20;;
15202;SDS011;7702;51.046;5.184;2022-09-29T17:09:00;5.00;;;3.17;;
15202;SDS011;7702;51.046;5.184;2022-09-29T17:11:27;5.63;;;3.60;;
15202;SDS011;7702;51.046;5.184;2022-09-29T17:13:53;4.03;;;3.60;;
15202;SDS011;7702;51.046;5.184;2022-09-29T17:16:22;5.30;;;3.60;;
15202;SDS011;7702;51.046;5.184;2022-09-29T17:18:50;5.20;;;4.30;;
15202;SDS011;7702;51.046;5.184;2022-09-29T17:21:17;4.97;;;4.53;;
15202;SDS011;7702;51.046;5.184;2022-09-29T17:23:44;5.07;;;4.53;;
15202;SDS011;7702;51.046;5.184;2022-09-29T17:26:20;5.33;;;4.30;;
15202;SDS011;7702;51.046;5.184;2022-09-29T17:29:09;5.23;;;4.60;;
15202;SDS011;7702;51.046;5.184;2022-09-29T17:31:35;4.27;;;3.87;;
15202;SDS011;7702;51.046;5.184;2022-09-29T17:34:01;4.97;;;3.57;;
15202;SDS011;7702;51.046;5.184;2022-09-29T17:36:31;3.33;;;2.67;;
15202;SDS011;7702;51.046;5.184;2022-09-29T17:38:57;3.00;;;2.70;;
15202;SDS011;7702;51.046;5.184;2022-09-29T17:41:23;4.67;;;2.90;;
15202;SDS011;7702;51.046;5.184;2022-09-29T17:43:48;7.93;;;5.13;;
15202;SDS011;7702;51.046;5.184;2022-09-29T17:46:14;7.70;;;6.90;;
15202;SDS011;7702;51.046;5.184;2022-09-29T17:48:40;10.87;;;8.13;;
15202;SDS011;7702;51.046;5.184;2022-09-29T17:51:11;9.43;;;7.87;;
15202;SDS011;7702;51.046;5.184;2022-09-29T17:53:38;10.13;;;7.87;;
15202;SDS011;7702;51.046;5.184;2022-09-29T17:56:05;9.07;;;7.40;;
15202;SDS011;7702;51.046;5.184;2022-09-29T17:58:43;11.10;;;9.30;;
15202;SDS011;7702;51.046;5.184;2022-09-29T18:01:09;11.07;;;9.70;;
15202;SDS011;7702;51.046;5.184;2022-09-29T18:03:34;10.60;;;9.50;;
15202;SDS011;7702;51.046;5.184;2022-09-29T18:06:00;11.13;;;9.43;;
15202;SDS011;7702;51.046;5.184;2022-09-29T18:08:26;12.40;;;8.73;;
15202;SDS011;7702;51.046;5.184;2022-09-29T18:10:57;10.57;;;8.70;;
15202;SDS011;7702;51.046;5.184;2022-09-29T18:13:25;11.50;;;7.97;;
15202;SDS011;7702;51.046;5.184;2022-09-29T18:15:52;8.30;;;7.10;;
15202;SDS011;7702;51.046;5.184;2022-09-29T18:18:19;10.43;;;7.77;;
15202;SDS011;7702;51.046;5.184;2022-09-29T18:20:46;9.60;;;7.23;;
15202;SDS011;7702;51.046;5.184;2022-09-29T18:23:13;8.43;;;7.53;;
15202;SDS011;7702;51.046;5.184;2022-09-29T18:25:42;9.70;;;8.00;;
15202;SDS011;7702;51.046;5.184;2022-09-29T18:28:10;7.40;;;6.57;;
15202;SDS011;7702;51.046;5.184;2022-09-29T18:30:36;8.47;;;6.63;;
15202;SDS011;7702;51.046;5.184;2022-09-29T18:33:08;7.07;;;5.73;;
15202;SDS011;7702;51.046;5.184;2022-09-29T18:35:43;8.07;;;5.57;;
15202;SDS011;7702;51.046;5.184;2022-09-29T18:38:11;7.33;;;5.33;;
15202;SDS011;7702;51.046;5.184;2022-09-29T18:40:37;9.93;;;5.70;;
15202;SDS011;7702;51.046;5.184;2022-09-29T18:43:04;6.70;;;4.90;;
15202;SDS011;7702;51.046;5.184;2022-09-29T18:45:32;7.30;;;5.33;;
15202;SDS011;7702;51.046;5.184;2022-09-29T18:48:01;6.37;;;5.27;;
15202;SDS011;7702;51.046;5.184;2022-09-29T18:50:29;6.67;;;4.83;;
15202;SDS011;7702;51.046;5.184;2022-09-29T18:52:57;6.30;;;5.20;;
15202;SDS011;7702;51.046;5.184;2022-09-29T18:55:25;12.20;;;5.57;;
15202;SDS011;7702;51.046;5.184;2022-09-29T18:57:53;8.10;;;5.30;;
15202;SDS011;7702;51.046;5.184;2022-09-29T19:00:27;5.97;;;5.37;;
15202;SDS011;7702;51.046;5.184;2022-09-29T19:02:55;8.20;;;5.27;;
15202;SDS011;7702;51.046;5.184;2022-09-29T19:05:26;7.60;;;5.20;;
15202;SDS011;7702;51.046;5.184;2022-09-29T19:07:56;7.37;;;5.93;;
15202;SDS011;7702;51.046;5.184;2022-09-29T19:10:23;8.40;;;6.13;;
15202;SDS011;7702;51.046;5.184;2022-09-29T19:12:50;6.97;;;5.83;;
15202;SDS011;7702;51.046;5.184;2022-09-29T19:15:22;7.50;;;5.50;;
15202;SDS011;7702;51.046;5.184;2022-09-29T19:17:49;11.43;;;6.27;;